sensor_id;sensor_type;location;lat;lon;timestamp;pressure;altitude;pressure_sealevel;temperature;humidity
58092;BME280;43896;48.178;11.578;2023-11-19T00:01:22;95951.56;;;5.86;83.35
58092;BME280;43896;48.178;11.578;2023-11-19T00:03:48;95940.81;;;6.73;78.98
58092;BME280;43896;48.178;11.578;2023-11-19T00:06:13;95941.19;;;7.00;77.92
58092;BME280;43896;48.178;11.578;2023-11-19T00:08:38;95935.63;;;7.24;76.70
58092;BME280;43896;48.178;11.578;2023-11-19T00:11:04;95941.81;;;6.51;79.19
58092;BME280;43896;48.178;11.578;2023-11-19T00:13:29;95931.13;;;7.05;77.19
58092;BME280;43896;48.178;11.578;2023-11-19T00:15:55;95914.50;;;6.04;81.34
58092;BME280;43896;48.178;11.578;2023-11-19T00:18:21;95905.38;;;5.98;82.92
58092;BME280;43896;48.178;11.578;2023-11-19T00:20:47;95906.59;;;6.15;83.42
58092;BME280;43896;48.178;11.578;2023-11-19T00:23:12;95898.22;;;6.83;79.85
58092;BME280;43896;48.178;11.578;2023-11-19T00:25:37;95894.00;;;7.11;77.83
58092;BME280;43896;48.178;11.578;2023-11-19T00:28:03;95901.97;;;7.09;77.78
58092;BME280;43896;48.178;11.578;2023-11-19T00:30:29;95893.59;;;7.06;78.01
58092;BME280;43896;48.178;11.578;2023-11-19T00:32:56;95898.56;;;6.59;79.32
58092;BME280;43896;48.178;11.578;2023-11-19T00:35:21;95893.03;;;6.52;80.57
58092;BME280;43896;48.178;11.578;2023-11-19T00:37:46;95887.50;;;6.95;79.47
58092;BME280;43896;48.178;11.578;2023-11-19T00:40:12;95882.56;;;7.02;79.11
58092;BME280;43896;48.178;11.578;2023-11-19T00:42:38;95885.41;;;6.80;80.66
58092;BME280;43896;48.178;11.578;2023-11-19T00:45:03;95877.09;;;7.25;78.61
58092;BME280;43896;48.178;11.578;2023-11-19T00:47:33;95867.59;;;7.43;77.42
58092;BME280;43896;48.178;11.578;2023-11-19T00:49:58;95864.72;;;7.46;77.78
58092;BME280;43896;48.178;11.578;2023-11-19T00:52:23;95866.19;;;7.10;80.02
58092;BME280;43896;48.178;11.578;2023-11-19T00:54:49;95861.53;;;7.33;78.29
58092;BME280;43896;48.178;11.578;2023-11-19T00:57:14;95860.13;;;6.40;83.09
58092;BME280;43896;48.178;11.578;2023-11-19T00:59:42;95853.00;;;7.02;80.37
58092;BME280;43896;48.178;11.578;2023-11-19T01:02:08;95852.16;;;7.40;79.76
58092;BME280;43896;48.178;11.578;2023-11-19T01:04:33;95857.38;;;7.60;77.79
58092;BME280;43896;48.178;11.578;2023-11-19T01:06:59;95853.53;;;7.64;78.48
58092;BME280;43896;48.178;11.578;2023-11-19T01:09:26;95854.09;;;7.58;78.13
58092;BME280;43896;48.178;11.578;2023-11-19T01:11:51;95843.06;;;7.74;77.70
58092;BME280;43896;48.178;11.578;2023-11-19T01:14:16;95841.16;;;7.37;79.41
58092;BME280;43896;48.178;11.578;2023-11-19T01:16:42;95841.28;;;7.74;78.19
58092;BME280;43896;48.178;11.578;2023-11-19T01:19:08;95842.75;;;7.86;78.06
58092;BME280;43896;48.178;11.578;2023-11-19T01:21:33;95844.56;;;7.76;78.56
58092;BME280;43896;48.178;11.578;2023-11-19T01:23:58;95836.25;;;7.91;77.40
58092;BME280;43896;48.178;11.578;2023-11-19T01:26:24;95835.56;;;7.98;77.85
58092;BME280;43896;48.178;11.578;2023-11-19T01:28:50;95828.31;;;7.63;80.12
58092;BME280;43896;48.178;11.578;2023-11-19T01:31:17;95828.31;;;7.82;78.46
58092;BME280;43896;48.178;11.578;2023-11-19T01:33:42;95820.66;;;7.99;78.50
58092;BME280;43896;48.178;11.578;2023-11-19T01:36:08;95817.25;;;7.88;78.61
58092;BME280;43896;48.178;11.578;2023-11-19T01:38:34;95823.53;;;8.05;77.71
58092;BME280;43896;48.178;11.578;2023-11-19T01:40:59;95812.41;;;7.94;78.96
58092;BME280;43896;48.178;11.578;2023-11-19T01:43:33;95825.19;;;7.40;79.72
58092;BME280;43896;48.178;11.578;2023-11-19T01:45:59;95816.91;;;7.54;80.43
58092;BME280;43896;48.178;11.578;2023-11-19T01:48:24;95814.94;;;7.76;79.60
58092;BME280;43896;48.178;11.578;2023-11-19T01:50:50;95813.22;;;8.04;79.64
58092;BME280;43896;48.178;11.578;2023-11-19T01:53:17;95801.66;;;7.97;79.14
58092;BME280;43896;48.178;11.578;2023-11-19T01:55:43;95814.63;;;7.88;80.18
58092;BME280;43896;48.178;11.578;2023-11-19T01:58:08;95803.16;;;7.99;79.91
58092;BME280;43896;48.178;11.578;2023-11-19T02:00:33;95802.44;;;8.17;79.21
58092;BME280;43896;48.178;11.578;2023-11-19T02:02:59;95791.41;;;8.13;79.91
58092;BME280;43896;48.178;11.578;2023-11-19T02:05:25;95791.66;;;7.73;81.65
58092;BME280;43896;48.178;11.578;2023-11-19T02:07:51;95783.38;;;8.15;81.46
58092;BME280;43896;48.178;11.578;2023-11-19T02:10:17;95777.53;;;8.03;81.67
58092;BME280;43896;48.178;11.578;2023-11-19T02:12:44;95783.03;;;8.37;81.15
58092;BME280;43896;48.178;11.578;2023-11-19T02:15:10;95781.88;;;8.50;80.35
58092;BME280;43896;48.178;11.578;2023-11-19T02:17:35;95762.78;;;8.57;80.55
58092;BME280;43896;48.178;11.578;2023-11-19T02:20:03;95762.22;;;8.63;80.30
58092;BME280;43896;48.178;11.578;2023-11-19T02:22:28;95759.97;;;8.69;79.30
58092;BME280;43896;48.178;11.578;2023-11-19T02:24:55;95749.34;;;8.15;81.82
58092;BME280;43896;48.178;11.578;2023-11-19T02:27:58;95755.91;;;8.56;81.20
58092;BME280;43896;48.178;11.578;2023-11-19T02:30:16;95747.97;;;8.48;81.46
58092;BME280;43896;48.178;11.578;2023-11-19T02:32:41;95738.84;;;8.70;80.62
58092;BME280;43896;48.178;11.578;2023-11-19T02:35:07;95740.91;;;8.49;81.89
58092;BME280;43896;48.178;11.578;2023-11-19T02:37:33;95734.56;;;8.69;80.88
58092;BME280;43896;48.178;11.578;2023-11-19T02:39:59;95730.09;;;8.79;80.09
58092;BME280;43896;48.178;11.578;2023-11-19T02:42:34;95726.03;;;8.85;80.48
58092;BME280;43896;48.178;11.578;2023-11-19T02:45:00;95733.78;;;8.41;82.09
58092;BME280;43896;48.178;11.578;2023-11-19T02:47:25;95728.91;;;8.74;81.55
58092;BME280;43896;48.178;11.578;2023-11-19T02:49:51;95723.41;;;8.85;81.09
58092;BME280;43896;48.178;11.578;2023-11-19T02:52:18;95714.00;;;8.92;80.94
58092;BME280;43896;48.178;11.578;2023-11-19T02:54:43;95716.66;;;9.00;80.24
58092;BME280;43896;48.178;11.578;2023-11-19T02:57:09;95699.66;;;8.87;81.95
58092;BME280;43896;48.178;11.578;2023-11-19T02:59:35;95694.34;;;8.96;81.58
58092;BME280;43896;48.178;11.578;2023-11-19T03:02:04;95693.94;;;9.09;81.56
58092;BME280;43896;48.178;11.578;2023-11-19T03:04:31;95693.19;;;9.17;81.28
58092;BME280;43896;48.178;11.578;2023-11-19T03:06:56;95694.84;;;9.18;81.06
58092;BME280;43896;48.178;11.578;2023-11-19T03:09:23;95700.09;;;9.00;82.75
58092;BME280;43896;48.178;11.578;2023-11-19T03:11:49;95692.78;;;8.86;82.92
58092;BME280;43896;48.178;11.578;2023-11-19T03:14:14;95684.25;;;8.66;84.85
58092;BME280;43896;48.178;11.578;2023-11-19T03:16:40;95683.25;;;9.03;83.51
58092;BME280;43896;48.178;11.578;2023-11-19T03:19:05;95683.00;;;9.14;82.86
58092;BME280;43896;48.178;11.578;2023-11-19T03:21:30;95684.38;;;9.26;82.36
58092;BME280;43896;48.178;11.578;2023-11-19T03:23:56;95691.34;;;9.35;82.71
58092;BME280;43896;48.178;11.578;2023-11-19T03:26:25;95680.06;;;9.43;82.72
58092;BME280;43896;48.178;11.578;2023-11-19T03:28:50;95685.84;;;9.20;83.97
58092;BME280;43896;48.178;11.578;2023-11-19T03:31:15;95678.09;;;9.45;83.05
58092;BME280;43896;48.178;11.578;2023-11-19T03:33:40;95669.47;;;9.53;83.28
58092;BME280;43896;48.178;11.578;2023-11-19T03:36:19;95676.88;;;9.57;83.06
58092;BME280;43896;48.178;11.578;2023-11-19T03:38:44;95682.31;;;9.64;82.93
58092;BME280;43896;48.178;11.578;2023-11-19T03:41:13;95692.22;;;9.70;82.82
58092;BME280;43896;48.178;11.578;2023-11-19T03:43:38;95682.38;;;9.72;83.51
58092;BME280;43896;48.178;11.578;2023-11-19T03:46:04;95685.34;;;9.77;83.13
58092;BME280;43896;48.178;11.578;2023-11-19T03:48:30;95686.69;;;9.82;83.17
58092;BME280;43896;48.178;11.578;2023-11-19T03:50:55;95689.81;;;9.85;83.25
58092;BME280;43896;48.178;11.578;2023-11-19T03:53:21;95685.09;;;9.89;83.17
58092;BME280;43896;48.178;11.578;2023-11-19T03:55:46;95687.78;;;9.71;84.91
58092;BME280;43896;48.178;11.578;2023-11-19T03:58:11;95682.09;;;9.84;84.24
58092;BME280;43896;48.178;11.578;2023-11-19T04:00:37;95677.56;;;9.94;84.06
58092;BME280;43896;48.178;11.578;2023-11-19T04:03:02;95679.53;;;10.00;84.27
58092;BME280;43896;48.178;11.578;2023-11-19T04:05:28;95676.91;;;9.92;85.20
58092;BME280;43896;48.178;11.578;2023-11-19T04:07:53;95682.00;;;10.02;84.79
58092;BME280;43896;48.178;11.578;2023-11-19T04:10:19;95679.88;;;10.05;85.26
58092;BME280;43896;48.178;11.578;2023-11-19T04:12:45;95682.84;;;10.10;84.99
58092;BME280;43896;48.178;11.578;2023-11-19T04:15:11;95678.09;;;10.14;85.22
58092;BME280;43896;48.178;11.578;2023-11-19T04:17:36;95680.25;;;10.19;85.21
58092;BME280;43896;48.178;11.578;2023-11-19T04:20:01;95684.19;;;10.14;85.56
58092;BME280;43896;48.178;11.578;2023-11-19T04:22:29;95673.69;;;10.23;85.34
58092;BME280;43896;48.178;11.578;2023-11-19T04:24:55;95685.50;;;10.19;86.04
58092;BME280;43896;48.178;11.578;2023-11-19T04:27:21;95691.63;;;10.27;85.41
58092;BME280;43896;48.178;11.578;2023-11-19T04:29:46;95685.31;;;10.12;85.98
58092;BME280;43896;48.178;11.578;2023-11-19T04:32:12;95686.81;;;10.23;85.46
58092;BME280;43896;48.178;11.578;2023-11-19T04:34:37;95683.22;;;10.24;85.94
58092;BME280;43896;48.178;11.578;2023-11-19T04:37:02;95675.47;;;10.14;86.80
58092;BME280;43896;48.178;11.578;2023-11-19T04:39:28;95686.31;;;10.19;86.66
58092;BME280;43896;48.178;11.578;2023-11-19T04:41:53;95684.88;;;10.25;86.63
58092;BME280;43896;48.178;11.578;2023-11-19T04:44:19;95687.03;;;10.29;86.78
58092;BME280;43896;48.178;11.578;2023-11-19T04:46:44;95677.88;;;10.34;86.28
58092;BME280;43896;48.178;11.578;2023-11-19T04:49:09;95686.91;;;9.97;88.41
58092;BME280;43896;48.178;11.578;2023-11-19T04:51:41;95687.53;;;10.25;87.13
58092;BME280;43896;48.178;11.578;2023-11-19T04:54:08;95691.19;;;10.32;86.40
58092;BME280;43896;48.178;11.578;2023-11-19T04:56:33;95681.25;;;10.26;87.07
58092;BME280;43896;48.178;11.578;2023-11-19T04:58:59;95699.00;;;10.24;86.53
58092;BME280;43896;48.178;11.578;2023-11-19T05:01:24;95698.91;;;10.34;86.73
58092;BME280;43896;48.178;11.578;2023-11-19T05:03:49;95690.53;;;10.38;86.46
58092;BME280;43896;48.178;11.578;2023-11-19T05:06:16;95687.72;;;10.40;86.30
58092;BME280;43896;48.178;11.578;2023-11-19T05:08:41;95690.38;;;10.48;86.32
58092;BME280;43896;48.178;11.578;2023-11-19T05:11:06;95702.88;;;10.46;85.84
58092;BME280;43896;48.178;11.578;2023-11-19T05:13:31;95711.56;;;10.38;86.12
58092;BME280;43896;48.178;11.578;2023-11-19T05:15:57;95699.28;;;10.47;86.09
58092;BME280;43896;48.178;11.578;2023-11-19T05:18:22;95704.34;;;10.48;85.74
58092;BME280;43896;48.178;11.578;2023-11-19T05:20:47;95701.72;;;10.48;85.79
58092;BME280;43896;48.178;11.578;2023-11-19T05:23:12;95715.56;;;10.50;85.68
58092;BME280;43896;48.178;11.578;2023-11-19T05:25:37;95717.03;;;10.53;85.41
58092;BME280;43896;48.178;11.578;2023-11-19T05:28:03;95710.91;;;10.36;86.70
58092;BME280;43896;48.178;11.578;2023-11-19T05:30:28;95724.41;;;10.49;85.83
58092;BME280;43896;48.178;11.578;2023-11-19T05:32:53;95730.63;;;10.48;85.63
58092;BME280;43896;48.178;11.578;2023-11-19T05:35:18;95717.50;;;10.48;85.29
58092;BME280;43896;48.178;11.578;2023-11-19T05:37:44;95717.03;;;10.53;85.58
58092;BME280;43896;48.178;11.578;2023-11-19T05:40:09;95721.81;;;10.58;85.43
58092;BME280;43896;48.178;11.578;2023-11-19T05:42:40;95719.50;;;10.55;85.22
58092;BME280;43896;48.178;11.578;2023-11-19T05:45:05;95720.16;;;10.57;85.36
58092;BME280;43896;48.178;11.578;2023-11-19T05:47:30;95728.19;;;10.47;85.76
58092;BME280;43896;48.178;11.578;2023-11-19T05:49:56;95715.53;;;10.59;85.41
58092;BME280;43896;48.178;11.578;2023-11-19T05:52:21;95721.16;;;10.64;84.99
58092;BME280;43896;48.178;11.578;2023-11-19T05:54:47;95718.16;;;10.42;86.14
58092;BME280;43896;48.178;11.578;2023-11-19T05:57:16;95721.81;;;10.58;85.03
58092;BME280;43896;48.178;11.578;2023-11-19T05:59:45;95725.88;;;10.44;85.24
58092;BME280;43896;48.178;11.578;2023-11-19T06:02:10;95721.16;;;10.56;85.60
58092;BME280;43896;48.178;11.578;2023-11-19T06:04:35;95704.88;;;10.60;84.87
58092;BME280;43896;48.178;11.578;2023-11-19T06:07:01;95701.59;;;10.58;84.88
58092;BME280;43896;48.178;11.578;2023-11-19T06:09:26;95713.56;;;10.53;85.06
58092;BME280;43896;48.178;11.578;2023-11-19T06:11:51;95715.91;;;10.56;85.37
58092;BME280;43896;48.178;11.578;2023-11-19T06:14:17;95718.19;;;10.59;85.35
58092;BME280;43896;48.178;11.578;2023-11-19T06:16:42;95725.91;;;10.60;85.06
58092;BME280;43896;48.178;11.578;2023-11-19T06:19:09;95731.25;;;10.34;86.27
58092;BME280;43896;48.178;11.578;2023-11-19T06:21:36;95721.47;;;10.53;85.87
58092;BME280;43896;48.178;11.578;2023-11-19T06:24:02;95722.16;;;10.63;84.76
58092;BME280;43896;48.178;11.578;2023-11-19T06:26:27;95708.84;;;10.64;85.04
58092;BME280;43896;48.178;11.578;2023-11-19T06:28:52;95708.00;;;10.56;85.61
58092;BME280;43896;48.178;11.578;2023-11-19T06:31:18;95716.81;;;10.38;86.51
58092;BME280;43896;48.178;11.578;2023-11-19T06:33:43;95712.13;;;10.66;85.42
58092;BME280;43896;48.178;11.578;2023-11-19T06:36:08;95728.28;;;10.80;84.83
58092;BME280;43896;48.178;11.578;2023-11-19T06:38:34;95718.91;;;10.85;84.54
58092;BME280;43896;48.178;11.578;2023-11-19T06:40:59;95714.13;;;10.89;84.09
58092;BME280;43896;48.178;11.578;2023-11-19T06:43:25;95719.06;;;10.92;84.09
58092;BME280;43896;48.178;11.578;2023-11-19T06:45:50;95720.19;;;10.89;84.20
58092;BME280;43896;48.178;11.578;2023-11-19T06:48:16;95717.09;;;10.94;84.00
58092;BME280;43896;48.178;11.578;2023-11-19T06:50:41;95725.47;;;10.98;84.08
58092;BME280;43896;48.178;11.578;2023-11-19T06:53:06;95721.19;;;10.97;83.97
58092;BME280;43896;48.178;11.578;2023-11-19T06:55:35;95731.25;;;10.85;84.47
58092;BME280;43896;48.178;11.578;2023-11-19T06:58:00;95730.72;;;10.73;85.56
58092;BME280;43896;48.178;11.578;2023-11-19T07:00:27;95737.16;;;10.95;84.54
58092;BME280;43896;48.178;11.578;2023-11-19T07:02:52;95727.78;;;11.01;84.01
58092;BME280;43896;48.178;11.578;2023-11-19T07:05:18;95726.44;;;10.97;84.07
58092;BME280;43896;48.178;11.578;2023-11-19T07:07:43;95734.38;;;11.05;84.05
58092;BME280;43896;48.178;11.578;2023-11-19T07:10:11;95736.84;;;11.06;84.04
58092;BME280;43896;48.178;11.578;2023-11-19T07:12:37;95728.78;;;11.16;83.38
58092;BME280;43896;48.178;11.578;2023-11-19T07:15:02;95733.38;;;10.81;83.77
58092;BME280;43896;48.178;11.578;2023-11-19T07:17:29;95739.63;;;11.05;84.29
58092;BME280;43896;48.178;11.578;2023-11-19T07:19:54;95739.16;;;11.18;82.98
58092;BME280;43896;48.178;11.578;2023-11-19T07:22:19;95737.97;;;10.96;83.48
58092;BME280;43896;48.178;11.578;2023-11-19T07:24:45;95739.16;;;11.18;83.55
58092;BME280;43896;48.178;11.578;2023-11-19T07:27:10;95742.59;;;11.26;83.06
58092;BME280;43896;48.178;11.578;2023-11-19T07:29:35;95747.19;;;11.00;84.38
58092;BME280;43896;48.178;11.578;2023-11-19T07:32:01;95750.47;;;11.10;84.74
58092;BME280;43896;48.178;11.578;2023-11-19T07:34:30;95757.88;;;11.06;84.94
58092;BME280;43896;48.178;11.578;2023-11-19T07:36:55;95757.59;;;11.18;84.52
58092;BME280;43896;48.178;11.578;2023-11-19T07:39:24;95775.50;;;11.22;84.55
58092;BME280;43896;48.178;11.578;2023-11-19T07:41:49;95769.28;;;11.40;83.56
58092;BME280;43896;48.178;11.578;2023-11-19T07:44:15;95781.25;;;11.34;83.21
58092;BME280;43896;48.178;11.578;2023-11-19T07:46:40;95776.81;;;11.43;83.27
58092;BME280;43896;48.178;11.578;2023-11-19T07:49:07;95779.78;;;11.48;83.38
58092;BME280;43896;48.178;11.578;2023-11-19T07:51:32;95781.59;;;11.23;84.52
58092;BME280;43896;48.178;11.578;2023-11-19T07:53:58;95773.22;;;11.44;83.80
58092;BME280;43896;48.178;11.578;2023-11-19T07:56:23;95772.69;;;11.07;84.38
58092;BME280;43896;48.178;11.578;2023-11-19T07:58:48;95784.91;;;11.33;84.65
58092;BME280;43896;48.178;11.578;2023-11-19T08:01:15;95778.63;;;11.42;83.45
58092;BME280;43896;48.178;11.578;2023-11-19T08:03:40;95766.97;;;11.45;82.84
58092;BME280;43896;48.178;11.578;2023-11-19T08:06:05;95774.69;;;11.55;83.16
58092;BME280;43896;48.178;11.578;2023-11-19T08:08:32;95764.34;;;11.45;83.16
58092;BME280;43896;48.178;11.578;2023-11-19T08:10:58;95771.56;;;11.51;82.97
58092;BME280;43896;48.178;11.578;2023-11-19T08:13:24;95783.06;;;11.58;83.18
58092;BME280;43896;48.178;11.578;2023-11-19T08:15:50;95777.81;;;11.42;83.87
58092;BME280;43896;48.178;11.578;2023-11-19T08:18:15;95783.75;;;11.60;82.80
58092;BME280;43896;48.178;11.578;2023-11-19T08:20:40;95783.44;;;11.55;82.97
58092;BME280;43896;48.178;11.578;2023-11-19T08:23:09;95777.63;;;11.68;82.27
58092;BME280;43896;48.178;11.578;2023-11-19T08:25:34;95773.88;;;11.46;83.16
58092;BME280;43896;48.178;11.578;2023-11-19T08:27:59;95784.41;;;11.62;83.21
58092;BME280;43896;48.178;11.578;2023-11-19T08:30:25;95790.81;;;11.76;82.49
58092;BME280;43896;48.178;11.578;2023-11-19T08:32:50;95785.22;;;11.79;82.10
58092;BME280;43896;48.178;11.578;2023-11-19T08:35:16;95787.84;;;11.71;81.83
58092;BME280;43896;48.178;11.578;2023-11-19T08:37:41;95784.38;;;11.87;81.45
58092;BME280;43896;48.178;11.578;2023-11-19T08:40:07;95787.50;;;11.82;81.47
58092;BME280;43896;48.178;11.578;2023-11-19T08:42:32;95792.59;;;11.84;81.84
58092;BME280;43896;48.178;11.578;2023-11-19T08:44:57;95781.56;;;11.89;81.42
58092;BME280;43896;48.178;11.578;2023-11-19T08:47:23;95786.84;;;11.97;81.31
58092;BME280;43896;48.178;11.578;2023-11-19T08:49:51;95780.25;;;11.93;81.91
58092;BME280;43896;48.178;11.578;2023-11-19T08:52:20;95788.66;;;11.80;81.31
58092;BME280;43896;48.178;11.578;2023-11-19T08:54:45;95796.06;;;11.60;81.94
58092;BME280;43896;48.178;11.578;2023-11-19T08:57:10;95795.22;;;11.84;81.46
58092;BME280;43896;48.178;11.578;2023-11-19T08:59:36;95791.66;;;11.93;81.19
58092;BME280;43896;48.178;11.578;2023-11-19T09:02:03;95787.81;;;12.04;80.39
58092;BME280;43896;48.178;11.578;2023-11-19T09:04:28;95780.59;;;11.81;81.18
58092;BME280;43896;48.178;11.578;2023-11-19T09:06:53;95773.19;;;11.93;81.46
58092;BME280;43896;48.178;11.578;2023-11-19T09:09:19;95776.09;;;12.07;80.76
58092;BME280;43896;48.178;11.578;2023-11-19T09:11:45;95776.97;;;11.91;81.25
58092;BME280;43896;48.178;11.578;2023-11-19T09:14:10;95781.03;;;12.10;80.72
58092;BME280;43896;48.178;11.578;2023-11-19T09:16:35;95773.44;;;12.15;80.47
58092;BME280;43896;48.178;11.578;2023-11-19T09:19:00;95780.38;;;12.24;80.18
58092;BME280;43896;48.178;11.578;2023-11-19T09:21:27;95792.22;;;12.28;80.41
58092;BME280;43896;48.178;11.578;2023-11-19T09:23:54;95799.84;;;11.90;82.03
58092;BME280;43896;48.178;11.578;2023-11-19T09:26:19;95791.91;;;12.23;80.70
58092;BME280;43896;48.178;11.578;2023-11-19T09:28:44;95798.28;;;12.37;79.83
58092;BME280;43896;48.178;11.578;2023-11-19T09:31:13;95787.91;;;12.27;80.90
58092;BME280;43896;48.178;11.578;2023-11-19T09:33:39;95797.63;;;12.35;80.29
58092;BME280;43896;48.178;11.578;2023-11-19T09:36:04;95807.69;;;12.40;80.20
58092;BME280;43896;48.178;11.578;2023-11-19T09:38:30;95808.31;;;12.42;80.07
58092;BME280;43896;48.178;11.578;2023-11-19T09:40:55;95812.72;;;12.49;79.79
58092;BME280;43896;48.178;11.578;2023-11-19T09:43:20;95806.66;;;12.49;79.75
58092;BME280;43896;48.178;11.578;2023-11-19T09:45:49;95803.84;;;12.50;79.47
58092;BME280;43896;48.178;11.578;2023-11-19T09:48:17;95800.72;;;12.47;80.15
58092;BME280;43896;48.178;11.578;2023-11-19T09:50:44;95798.41;;;12.44;80.86
58092;BME280;43896;48.178;11.578;2023-11-19T09:53:10;95785.09;;;12.29;82.32
58092;BME280;43896;48.178;11.578;2023-11-19T09:55:35;95787.72;;;12.37;80.63
58092;BME280;43896;48.178;11.578;2023-11-19T09:58:00;95790.66;;;12.50;80.95
58092;BME280;43896;48.178;11.578;2023-11-19T10:00:26;95787.50;;;12.55;81.10
58092;BME280;43896;48.178;11.578;2023-11-19T10:02:52;95779.91;;;12.60;80.59
58092;BME280;43896;48.178;11.578;2023-11-19T10:05:18;95772.63;;;12.62;80.62
58092;BME280;43896;48.178;11.578;2023-11-19T10:07:45;95763.97;;;12.76;79.76
58092;BME280;43896;48.178;11.578;2023-11-19T10:10:10;95766.53;;;12.93;78.99
58092;BME280;43896;48.178;11.578;2023-11-19T10:12:40;95762.19;;;13.00;78.56
58092;BME280;43896;48.178;11.578;2023-11-19T10:15:05;95761.25;;;12.93;79.53
58092;BME280;43896;48.178;11.578;2023-11-19T10:17:32;95760.19;;;13.02;78.61
58092;BME280;43896;48.178;11.578;2023-11-19T10:19:57;95762.06;;;12.93;78.67
58092;BME280;43896;48.178;11.578;2023-11-19T10:22:23;95759.94;;;12.89;78.61
58092;BME280;43896;48.178;11.578;2023-11-19T10:24:49;95766.56;;;13.39;76.85
58092;BME280;43896;48.178;11.578;2023-11-19T10:27:14;95742.50;;;13.34;76.68
58092;BME280;43896;48.178;11.578;2023-11-19T10:29:40;95758.44;;;13.64;75.30
58092;BME280;43896;48.178;11.578;2023-11-19T10:32:09;95747.19;;;13.47;75.70
58092;BME280;43896;48.178;11.578;2023-11-19T10:34:34;95743.13;;;13.74;74.92
58092;BME280;43896;48.178;11.578;2023-11-19T10:37:02;95740.91;;;13.63;74.73
58092;BME280;43896;48.178;11.578;2023-11-19T10:40:10;95736.72;;;13.54;74.89
58092;BME280;43896;48.178;11.578;2023-11-19T10:42:16;95737.50;;;13.39;75.19
58092;BME280;43896;48.178;11.578;2023-11-19T10:44:41;95723.50;;;13.54;75.39
58092;BME280;43896;48.178;11.578;2023-11-19T10:47:07;95718.66;;;13.42;74.77
58092;BME280;43896;48.178;11.578;2023-11-19T10:49:33;95725.66;;;13.88;73.97
58092;BME280;43896;48.178;11.578;2023-11-19T10:52:00;95728.59;;;14.08;73.14
58092;BME280;43896;48.178;11.578;2023-11-19T10:54:25;95724.94;;;13.94;73.04
58092;BME280;43896;48.178;11.578;2023-11-19T10:56:54;95721.44;;;13.94;73.21
58092;BME280;43896;48.178;11.578;2023-11-19T10:59:19;95715.06;;;13.88;73.50
58092;BME280;43896;48.178;11.578;2023-11-19T11:01:46;95732.00;;;13.64;74.23
58092;BME280;43896;48.178;11.578;2023-11-19T11:04:19;95731.66;;;13.82;73.31
58092;BME280;43896;48.178;11.578;2023-11-19T11:06:47;95727.09;;;13.76;73.15
58092;BME280;43896;48.178;11.578;2023-11-19T11:09:13;95717.53;;;13.90;72.99
58092;BME280;43896;48.178;11.578;2023-11-19T11:11:40;95706.41;;;13.79;73.64
58092;BME280;43896;48.178;11.578;2023-11-19T11:14:06;95708.59;;;14.05;72.29
58092;BME280;43896;48.178;11.578;2023-11-19T11:16:32;95711.06;;;14.07;72.55
58092;BME280;43896;48.178;11.578;2023-11-19T11:18:59;95708.69;;;14.12;72.22
58092;BME280;43896;48.178;11.578;2023-11-19T11:21:25;95712.50;;;14.10;71.99
58092;BME280;43896;48.178;11.578;2023-11-19T11:29:04;95704.94;;;14.21;71.40
58092;BME280;43896;48.178;11.578;2023-11-19T11:36:22;95705.72;;;14.52;70.62
58092;BME280;43896;48.178;11.578;2023-11-19T11:38:48;95697.03;;;15.37;68.07
58092;BME280;43896;48.178;11.578;2023-11-19T11:41:20;95698.50;;;15.18;67.90
58092;BME280;43896;48.178;11.578;2023-11-19T11:43:49;95687.41;;;15.08;68.23
58092;BME280;43896;48.178;11.578;2023-11-19T11:46:57;95681.84;;;15.03;68.18
58092;BME280;43896;48.178;11.578;2023-11-19T11:49:05;95697.44;;;15.13;67.88
58092;BME280;43896;48.178;11.578;2023-11-19T11:51:57;95671.94;;;15.33;67.62
58092;BME280;43896;48.178;11.578;2023-11-19T11:57:06;95683.59;;;15.39;66.64
58092;BME280;43896;48.178;11.578;2023-11-19T12:02:07;95695.22;;;15.16;66.22
58092;BME280;43896;48.178;11.578;2023-11-19T12:04:34;95680.88;;;15.11;66.89
58092;BME280;43896;48.178;11.578;2023-11-19T12:07:03;95691.72;;;15.16;67.07
58092;BME280;43896;48.178;11.578;2023-11-19T12:09:28;95687.47;;;15.15;66.20
58092;BME280;43896;48.178;11.578;2023-11-19T12:12:06;95683.34;;;15.12;66.30
58092;BME280;43896;48.178;11.578;2023-11-19T12:20:03;95699.75;;;15.01;66.16
58092;BME280;43896;48.178;11.578;2023-11-19T12:22:30;95692.31;;;14.90;66.61
58092;BME280;43896;48.178;11.578;2023-11-19T12:24:56;95690.31;;;15.13;66.66
58092;BME280;43896;48.178;11.578;2023-11-19T12:27:21;95689.56;;;15.48;66.06
58092;BME280;43896;48.178;11.578;2023-11-19T12:29:49;95672.84;;;15.47;64.87
58092;BME280;43896;48.178;11.578;2023-11-19T12:32:15;95681.22;;;15.51;65.23
58092;BME280;43896;48.178;11.578;2023-11-19T12:34:40;95670.69;;;15.57;64.06
58092;BME280;43896;48.178;11.578;2023-11-19T12:37:05;95663.19;;;15.40;63.95
58092;BME280;43896;48.178;11.578;2023-11-19T12:39:31;95661.16;;;15.42;64.33
58092;BME280;43896;48.178;11.578;2023-11-19T12:41:56;95657.94;;;15.18;64.46
58092;BME280;43896;48.178;11.578;2023-11-19T12:44:24;95649.56;;;15.43;64.11
58092;BME280;43896;48.178;11.578;2023-11-19T12:47:05;95658.34;;;15.71;63.56
58092;BME280;43896;48.178;11.578;2023-11-19T12:49:36;95653.13;;;15.85;62.83
58092;BME280;43896;48.178;11.578;2023-11-19T12:52:01;95655.59;;;15.58;62.95
58092;BME280;43896;48.178;11.578;2023-11-19T12:54:36;95650.50;;;15.28;63.63
58092;BME280;43896;48.178;11.578;2023-11-19T12:57:02;95644.50;;;15.48;63.45
58092;BME280;43896;48.178;11.578;2023-11-19T12:59:27;95649.81;;;14.98;64.92
58092;BME280;43896;48.178;11.578;2023-11-19T13:01:56;95648.78;;;15.21;64.27
58092;BME280;43896;48.178;11.578;2023-11-19T13:04:22;95650.19;;;15.45;63.88
58092;BME280;43896;48.178;11.578;2023-11-19T13:06:47;95649.34;;;15.16;64.34
58092;BME280;43896;48.178;11.578;2023-11-19T13:09:28;95633.00;;;15.34;63.84